createdAt,value
2022-07-28T00:00:17.648Z,2.40
2022-07-28T00:02:45.174Z,2.50
2022-07-28T00:05:12.955Z,2.70
2022-07-28T00:07:40.534Z,2.40
2022-07-28T00:10:08.794Z,2.80
2022-07-28T00:12:36.610Z,2.55
2022-07-28T00:15:04.876Z,3.00
2022-07-28T00:17:33.673Z,2.40
2022-07-28T00:20:01.108Z,2.70
2022-07-28T00:22:28.591Z,2.25
2022-07-28T00:24:56.033Z,2.50
2022-07-28T00:27:24.765Z,2.72
2022-07-28T00:29:52.218Z,2.25
2022-07-28T00:32:20.442Z,2.67
2022-07-28T00:34:52.915Z,3.00
2022-07-28T00:37:21.229Z,3.33
2022-07-28T00:39:48.741Z,2.70
2022-07-28T00:42:18.787Z,2.95
2022-07-28T00:44:46.248Z,2.55
2022-07-28T00:47:14.397Z,2.30
2022-07-28T00:49:42.062Z,2.58
2022-07-28T00:52:11.475Z,3.00
2022-07-28T00:54:39.031Z,2.90
2022-07-28T00:57:06.917Z,2.72
2022-07-28T00:59:34.356Z,3.15
2022-07-28T01:02:02.400Z,2.95
2022-07-28T01:04:30.811Z,2.42
2022-07-28T01:07:11.841Z,2.78
2022-07-28T01:09:49.933Z,2.47
2022-07-28T01:12:29.942Z,2.40
2022-07-28T01:15:05.087Z,2.55
2022-07-28T01:17:37.558Z,2.40
2022-07-28T01:20:09.657Z,2.33
2022-07-28T01:22:42.621Z,2.70
2022-07-28T01:25:19.405Z,2.70
2022-07-28T01:27:56.024Z,2.30
2022-07-28T01:30:31.347Z,2.63
2022-07-28T01:33:01.087Z,2.38
2022-07-28T01:35:31.898Z,2.53
2022-07-28T01:38:02.186Z,2.45
2022-07-28T01:40:33.801Z,2.50
2022-07-28T01:43:03.066Z,2.55
2022-07-28T01:45:33.725Z,2.30
2022-07-28T01:48:02.369Z,2.60
2022-07-28T01:50:30.849Z,2.50
2022-07-28T01:52:59.121Z,2.35
2022-07-28T01:55:27.310Z,2.92
2022-07-28T01:57:56.498Z,2.67
2022-07-28T02:00:26.046Z,2.38
2022-07-28T02:02:57.636Z,2.40
2022-07-28T02:05:26.325Z,2.72
2022-07-28T02:07:54.408Z,2.53
2022-07-28T02:10:22.897Z,2.50
2022-07-28T02:12:51.361Z,2.70
2022-07-28T02:15:20.280Z,3.10
2022-07-28T02:17:48.101Z,3.17
2022-07-28T02:20:17.531Z,2.75
2022-07-28T02:22:45.730Z,2.67
2022-07-28T02:25:19.309Z,2.47
2022-07-28T02:27:49.313Z,2.78
2022-07-28T02:30:18.495Z,2.85
2022-07-28T02:32:50.120Z,2.38
2022-07-28T02:35:24.485Z,2.63
2022-07-28T02:38:00.486Z,3.10
2022-07-28T02:40:34.432Z,2.78
2022-07-28T02:45:30.087Z,2.70
2022-07-28T02:48:01.380Z,2.92
2022-07-28T02:50:30.616Z,3.03
2022-07-28T02:53:00.705Z,3.15
2022-07-28T02:55:42.797Z,2.90
2022-07-28T02:58:10.777Z,2.85
2022-07-28T03:00:38.421Z,3.30
2022-07-28T03:03:06.220Z,3.47
2022-07-28T03:05:35.611Z,3.25
2022-07-28T03:08:03.171Z,3.08
2022-07-28T03:10:34.056Z,2.65
2022-07-28T03:13:02.940Z,3.22
2022-07-28T03:15:30.865Z,3.25
2022-07-28T03:17:58.398Z,2.85
2022-07-28T03:20:25.866Z,3.20
2022-07-28T03:22:55.289Z,2.85
2022-07-28T03:25:27.712Z,3.10
2022-07-28T03:27:55.510Z,3.20
2022-07-28T03:30:27.710Z,3.03
2022-07-28T03:32:57.114Z,3.53
2022-07-28T03:35:25.010Z,3.03
2022-07-28T03:37:56.600Z,3.22
2022-07-28T03:40:26.913Z,3.30
2022-07-28T03:42:54.721Z,2.75
2022-07-28T03:45:22.853Z,3.08
2022-07-28T03:47:51.906Z,3.00
2022-07-28T03:50:19.630Z,3.00
2022-07-28T03:52:47.060Z,3.20
2022-07-28T03:55:16.255Z,3.20
2022-07-28T03:57:47.814Z,3.28
2022-07-28T04:00:17.029Z,3.42
2022-07-28T04:02:44.731Z,3.05
2022-07-28T04:05:12.877Z,3.47
2022-07-28T04:07:40.659Z,3.33
2022-07-28T04:10:09.411Z,3.00
2022-07-28T04:12:51.791Z,3.55
2022-07-28T04:15:19.989Z,3.70
2022-07-28T04:17:48.660Z,3.40
2022-07-28T04:20:16.555Z,3.60
2022-07-28T04:22:44.559Z,3.70
2022-07-28T04:25:13.735Z,4.03
2022-07-28T04:27:42.115Z,3.35
2022-07-28T04:30:13.300Z,3.50
2022-07-28T04:32:40.744Z,4.15
2022-07-28T04:35:09.938Z,3.70
2022-07-28T04:37:38.975Z,4.07
2022-07-28T04:40:07.997Z,4.07
2022-07-28T04:42:35.990Z,4.50
2022-07-28T04:45:04.381Z,3.45
2022-07-28T04:47:33.287Z,4.00
2022-07-28T04:50:00.705Z,3.75
2022-07-28T04:52:28.211Z,3.72
2022-07-28T04:54:55.958Z,3.90
2022-07-28T04:57:23.398Z,4.22
2022-07-28T04:59:54.226Z,4.18
2022-07-28T05:02:24.465Z,3.50
2022-07-28T05:04:53.785Z,3.90
2022-07-28T05:07:21.366Z,3.85
2022-07-28T05:09:48.867Z,4.25
2022-07-28T05:12:16.304Z,3.33
2022-07-28T05:14:43.782Z,3.85
2022-07-28T05:17:11.243Z,3.90
2022-07-28T05:19:40.911Z,5.00
2022-07-28T05:22:09.663Z,4.28
2022-07-28T05:24:37.113Z,4.43
2022-07-28T05:27:04.585Z,3.72
2022-07-28T05:29:37.697Z,4.18
2022-07-28T05:32:17.469Z,3.50
2022-07-28T05:34:45.468Z,3.72
2022-07-28T05:37:14.266Z,4.90
2022-07-28T05:39:41.720Z,4.45
2022-07-28T05:42:09.145Z,3.63
2022-07-28T05:44:38.487Z,4.07
2022-07-28T05:47:06.734Z,4.43
2022-07-28T05:49:35.168Z,3.90
2022-07-28T05:52:03.266Z,3.30
2022-07-28T05:54:32.026Z,3.30
2022-07-28T05:56:59.464Z,3.83
2022-07-28T05:59:26.929Z,5.35
2022-07-28T06:01:54.441Z,3.28
2022-07-28T06:04:27.612Z,3.88
2022-07-28T06:06:55.606Z,2.70
2022-07-28T06:09:23.083Z,3.25
2022-07-28T06:11:51.842Z,3.15
2022-07-28T06:14:19.499Z,3.25
2022-07-28T06:16:50.874Z,2.58
2022-07-28T06:19:18.690Z,3.30
2022-07-28T06:21:47.431Z,2.85
2022-07-28T06:24:15.426Z,3.05
2022-07-28T06:26:44.892Z,2.40
2022-07-28T06:29:13.903Z,2.45
2022-07-28T06:31:41.423Z,2.50
2022-07-28T06:34:08.883Z,2.45
2022-07-28T06:36:36.487Z,2.20
2022-07-28T06:39:04.739Z,2.53
2022-07-28T06:41:32.300Z,2.30
2022-07-28T06:43:59.726Z,2.25
2022-07-28T06:46:30.555Z,2.40
2022-07-28T06:48:58.071Z,2.30
2022-07-28T06:51:25.576Z,1.80
2022-07-28T06:53:53.069Z,2.55
2022-07-28T06:56:21.538Z,2.20
2022-07-28T06:58:49.143Z,2.33
2022-07-28T07:01:17.212Z,2.80
2022-07-28T07:03:46.147Z,2.45
2022-07-28T07:06:13.701Z,2.20
2022-07-28T07:08:41.214Z,1.90
2022-07-28T07:11:08.778Z,2.20
2022-07-28T07:13:36.980Z,2.72
2022-07-28T07:16:04.917Z,2.30
2022-07-28T07:18:32.446Z,2.22
2022-07-28T07:21:01.233Z,2.17
2022-07-28T07:23:28.747Z,1.83
2022-07-28T07:25:56.305Z,2.08
2022-07-28T07:28:23.764Z,2.33
2022-07-28T07:30:51.236Z,2.08
2022-07-28T07:33:18.686Z,2.10
2022-07-28T07:35:46.146Z,1.63
2022-07-28T07:38:14.936Z,1.90
2022-07-28T07:40:42.411Z,2.15
2022-07-28T07:43:09.863Z,2.30
2022-07-28T07:45:37.371Z,2.08
2022-07-28T07:48:05.117Z,2.03
2022-07-28T07:50:32.677Z,2.33
2022-07-28T07:53:00.948Z,1.90
2022-07-28T07:55:37.499Z,2.08
2022-07-28T07:58:05.508Z,2.03
2022-07-28T08:00:33.122Z,1.85
2022-07-28T08:03:01.289Z,2.45
2022-07-28T08:05:35.900Z,1.88
2022-07-28T08:08:04.717Z,1.80
2022-07-28T08:10:33.660Z,2.10
2022-07-28T08:13:01.194Z,2.28
2022-07-28T08:15:28.746Z,1.95
2022-07-28T08:17:56.201Z,3.22
2022-07-28T08:20:23.650Z,4.53
2022-07-28T08:22:51.951Z,2.33
2022-07-28T08:25:20.009Z,2.83
2022-07-28T08:27:49.073Z,2.03
2022-07-28T08:30:21.672Z,1.90
2022-07-28T08:32:56.861Z,2.63
2022-07-28T08:35:40.386Z,2.08
2022-07-28T08:38:11.290Z,2.13
2022-07-28T08:40:39.446Z,2.17
2022-07-28T08:43:15.456Z,2.00
2022-07-28T08:45:44.443Z,2.28
2022-07-28T08:48:13.085Z,2.20
2022-07-28T08:50:40.683Z,2.05
2022-07-28T08:53:08.539Z,2.08
2022-07-28T08:55:36.764Z,1.85
2022-07-28T08:58:04.443Z,2.33
2022-07-28T09:00:33.268Z,2.50
2022-07-28T09:03:00.976Z,2.30
2022-07-28T09:05:28.738Z,2.00
2022-07-28T09:07:56.246Z,2.08
2022-07-28T09:10:24.125Z,5.00
2022-07-28T09:12:51.664Z,2.30
2022-07-28T09:15:19.202Z,1.58
2022-07-28T09:17:48.006Z,2.45
2022-07-28T09:20:15.737Z,1.92
2022-07-28T09:23:00.969Z,1.95
2022-07-28T09:25:29.107Z,1.98
2022-07-28T09:27:57.198Z,1.95
2022-07-28T09:30:31.635Z,2.00
2022-07-28T09:33:43.373Z,1.90
2022-07-28T09:36:15.770Z,2.13
2022-07-28T09:38:43.293Z,1.90
2022-07-28T09:41:10.815Z,2.30
2022-07-28T09:43:39.632Z,1.95
2022-07-28T09:46:10.422Z,2.00
2022-07-28T09:48:52.191Z,2.17
2022-07-28T09:51:21.719Z,2.70
2022-07-28T09:53:49.818Z,2.17
2022-07-28T09:56:17.511Z,3.60
2022-07-28T09:58:54.488Z,2.45
2022-07-28T10:01:22.424Z,2.50
2022-07-28T10:03:55.870Z,2.17
2022-07-28T10:06:29.133Z,2.00
2022-07-28T10:08:58.254Z,2.10
2022-07-28T10:11:27.797Z,2.20
2022-07-28T10:13:58.096Z,2.10
2022-07-28T10:16:27.004Z,2.05
2022-07-28T10:18:56.894Z,1.98
2022-07-28T10:21:25.837Z,2.10
2022-07-28T10:23:55.002Z,2.28
2022-07-28T10:26:26.098Z,1.77
2022-07-28T10:28:55.086Z,1.80
2022-07-28T10:31:40.045Z,1.98
2022-07-28T10:34:15.796Z,2.20
2022-07-28T10:36:44.603Z,2.17
2022-07-28T10:39:14.292Z,2.10
2022-07-28T10:41:42.886Z,2.03
2022-07-28T10:44:14.389Z,2.03
2022-07-28T10:46:43.417Z,1.90
2022-07-28T10:49:14.073Z,2.20
2022-07-28T10:52:01.221Z,1.73
2022-07-28T10:54:31.891Z,2.15
2022-07-28T10:57:04.756Z,2.00
2022-07-28T11:00:00.720Z,1.70
2022-07-28T11:02:48.864Z,1.50
2022-07-28T11:05:38.648Z,1.90
2022-07-28T11:08:09.182Z,1.85
2022-07-28T11:10:48.120Z,2.17
2022-07-28T11:13:28.979Z,5.80
2022-07-28T11:15:58.243Z,2.47
2022-07-28T11:18:28.804Z,2.20
2022-07-28T11:21:10.454Z,1.90
2022-07-28T11:23:46.210Z,1.90
2022-07-28T11:26:35.331Z,1.70
2022-07-28T11:29:22.373Z,2.10
2022-07-28T11:32:00.396Z,1.83
2022-07-28T11:34:28.123Z,1.75
2022-07-28T11:37:06.953Z,1.83
2022-07-28T11:39:43.393Z,1.70
2022-07-28T11:42:27.845Z,1.38
2022-07-28T11:44:57.075Z,2.10
2022-07-28T11:47:26.163Z,1.70
2022-07-28T11:50:13.249Z,2.08
2022-07-28T11:52:53.763Z,1.63
2022-07-28T11:55:21.566Z,2.00
2022-07-28T11:58:09.007Z,1.80
2022-07-28T12:00:36.445Z,2.08
2022-07-28T12:03:05.602Z,1.70
2022-07-28T12:05:34.473Z,1.67
2022-07-28T12:08:10.864Z,1.85
2022-07-28T12:10:55.426Z,1.90
2022-07-28T12:13:28.445Z,1.60
2022-07-28T12:15:55.877Z,1.55
2022-07-28T12:18:25.104Z,1.60
2022-07-28T12:20:54.435Z,1.65
2022-07-28T12:23:34.899Z,1.85
2022-07-28T12:26:13.154Z,1.92
2022-07-28T12:28:50.209Z,1.60
2022-07-28T12:31:17.688Z,1.48
2022-07-28T12:33:45.353Z,1.60
2022-07-28T12:36:12.942Z,1.85
2022-07-28T12:38:41.722Z,1.65
2022-07-28T12:41:15.029Z,1.70
2022-07-28T12:43:50.400Z,1.88
2022-07-28T12:46:21.162Z,2.13
2022-07-28T12:48:48.945Z,1.60
2022-07-28T12:51:30.838Z,1.90
2022-07-28T12:53:59.639Z,1.85
2022-07-28T12:56:27.088Z,1.58
2022-07-28T12:59:05.524Z,1.83
2022-07-28T13:01:49.264Z,2.05
2022-07-28T13:06:55.594Z,2.00
2022-07-28T13:09:35.274Z,2.17
2022-07-28T13:12:02.928Z,1.83
2022-07-28T13:14:40.103Z,1.88
2022-07-28T13:17:07.534Z,1.60
2022-07-28T13:19:34.958Z,1.85
2022-07-28T13:22:06.897Z,1.63
2022-07-28T13:24:38.274Z,1.95
2022-07-28T13:27:06.853Z,1.60
2022-07-28T13:29:35.676Z,1.65
2022-07-28T13:32:03.174Z,2.72
2022-07-28T13:34:30.735Z,2.10
2022-07-28T13:36:58.167Z,1.70
2022-07-28T13:39:25.721Z,1.88
2022-07-28T13:41:58.417Z,2.20
2022-07-28T13:44:27.051Z,2.08
2022-07-28T13:46:55.433Z,1.65
2022-07-28T13:49:23.504Z,1.65
2022-07-28T13:51:51.493Z,1.50
2022-07-28T13:54:19.886Z,1.73
2022-07-28T13:56:48.108Z,1.83
2022-07-28T13:59:17.361Z,1.60
2022-07-28T14:01:49.646Z,1.60
2022-07-28T14:04:18.088Z,1.92
2022-07-28T14:06:45.921Z,1.80
2022-07-28T14:09:18.323Z,2.08
2022-07-28T14:11:49.979Z,1.83
2022-07-28T14:14:24.574Z,1.80
2022-07-28T14:16:54.470Z,1.90
2022-07-28T14:19:22.997Z,1.98
2022-07-28T14:21:55.642Z,2.03
2022-07-28T14:24:23.114Z,1.60
2022-07-28T14:26:50.584Z,1.55
2022-07-28T14:29:18.018Z,2.00
2022-07-28T14:31:46.851Z,1.73
2022-07-28T14:34:14.651Z,2.00
2022-07-28T14:36:42.381Z,2.03
2022-07-28T14:39:12.594Z,1.90
2022-07-28T14:41:42.528Z,1.85
2022-07-28T14:44:15.263Z,1.70
2022-07-28T14:46:47.162Z,1.92
2022-07-28T14:49:14.672Z,3.58
2022-07-28T14:51:44.809Z,2.10
2022-07-28T14:54:12.800Z,1.60
2022-07-28T14:56:40.521Z,1.83
2022-07-28T14:59:07.954Z,1.92
2022-07-28T15:01:36.516Z,2.03
2022-07-28T15:04:06.206Z,3.50
2022-07-28T15:06:33.638Z,1.80
2022-07-28T15:09:02.056Z,1.70
2022-07-28T15:11:29.536Z,1.60
2022-07-28T15:13:56.985Z,1.70
2022-07-28T15:16:25.028Z,1.65
2022-07-28T15:18:52.588Z,1.70
2022-07-28T15:21:21.459Z,2.20
2022-07-28T15:23:49.410Z,1.90
2022-07-28T15:26:16.875Z,1.85
2022-07-28T15:28:45.849Z,2.00
2022-07-28T15:31:13.465Z,1.92
2022-07-28T15:33:48.064Z,1.80
2022-07-28T15:36:18.437Z,1.88
2022-07-28T15:38:49.103Z,2.10
2022-07-28T15:41:18.946Z,1.80
2022-07-28T15:43:46.444Z,1.80
2022-07-28T15:46:14.284Z,1.83
2022-07-28T15:48:43.803Z,1.80
2022-07-28T15:51:11.467Z,2.00
2022-07-28T15:53:39.093Z,1.92
2022-07-28T15:56:08.884Z,2.20
2022-07-28T15:58:36.635Z,1.65
2022-07-28T16:01:04.123Z,1.90
2022-07-28T16:03:31.612Z,2.38
2022-07-28T16:05:59.251Z,2.08
2022-07-28T16:08:27.261Z,1.65
2022-07-28T16:10:55.074Z,1.88
2022-07-28T16:13:33.382Z,1.77
2022-07-28T16:16:06.311Z,1.83
2022-07-28T16:18:33.975Z,2.00
2022-07-28T16:21:01.435Z,2.00
2022-07-28T16:23:29.645Z,2.05
2022-07-28T16:25:57.105Z,1.63
2022-07-28T16:28:26.474Z,1.70
2022-07-28T16:30:54.504Z,1.90
2022-07-28T16:33:22.015Z,1.90
2022-07-28T16:35:49.472Z,1.50
2022-07-28T16:38:19.780Z,1.90
2022-07-28T16:40:47.214Z,1.60
2022-07-28T16:43:14.659Z,1.75
2022-07-28T16:45:43.450Z,1.60
2022-07-28T16:48:10.888Z,2.35
2022-07-28T16:50:39.354Z,2.10
2022-07-28T16:53:08.946Z,1.90
2022-07-28T16:55:36.548Z,1.95
2022-07-28T16:58:04.016Z,1.70
2022-07-28T17:00:31.477Z,1.70
2022-07-28T17:03:00.260Z,1.50
2022-07-28T17:05:27.700Z,1.77
2022-07-28T17:07:55.192Z,1.65
2022-07-28T17:10:27.048Z,1.73
2022-07-28T17:12:55.192Z,1.67
2022-07-28T17:15:23.501Z,1.58
2022-07-28T17:17:51.579Z,1.70
2022-07-28T17:20:20.935Z,1.48
2022-07-28T17:22:48.596Z,1.75
2022-07-28T17:28:05.175Z,1.67
2022-07-28T17:30:33.291Z,1.90
2022-07-28T17:33:07.699Z,1.88
2022-07-28T17:35:38.107Z,1.80
2022-07-28T17:38:09.082Z,3.45
2022-07-28T17:40:37.914Z,2.05
2022-07-28T17:43:05.809Z,1.95
2022-07-28T17:45:33.247Z,2.17
2022-07-28T17:48:00.679Z,2.22
2022-07-28T17:50:28.173Z,2.08
2022-07-28T17:52:57.025Z,2.05
2022-07-28T17:55:59.927Z,2.78
2022-07-28T17:58:28.806Z,2.20
2022-07-28T18:00:58.692Z,1.92
2022-07-28T18:03:56.661Z,1.90
2022-07-28T18:06:25.371Z,1.73
2022-07-28T18:08:54.196Z,1.92
2022-07-28T18:11:21.610Z,1.90
2022-07-28T18:14:03.944Z,2.05
2022-07-28T18:16:33.112Z,2.05
2022-07-28T18:19:00.566Z,2.30
2022-07-28T18:21:28.002Z,2.10
2022-07-28T18:23:56.839Z,2.17
2022-07-28T18:26:24.321Z,2.00
2022-07-28T18:28:52.119Z,2.30
2022-07-28T18:31:19.630Z,2.33
2022-07-28T18:33:47.118Z,2.55
2022-07-28T18:36:14.542Z,2.50
2022-07-28T18:38:42.183Z,2.83
2022-07-28T18:41:10.965Z,3.13
2022-07-28T18:43:38.701Z,2.60
2022-07-28T18:46:06.286Z,2.55
2022-07-28T18:48:33.800Z,2.25
2022-07-28T18:51:01.303Z,2.30
2022-07-28T18:53:28.792Z,2.58
2022-07-28T18:55:56.243Z,2.45
2022-07-28T18:58:25.113Z,3.10
2022-07-28T19:00:52.578Z,3.42
2022-07-28T19:03:20.212Z,3.60
2022-07-28T19:05:47.719Z,3.45
2022-07-28T19:08:15.159Z,3.45
2022-07-28T19:10:44.599Z,2.83
2022-07-28T19:13:13.304Z,2.85
2022-07-28T19:15:42.547Z,2.80
2022-07-28T19:18:12.069Z,5.32
2022-07-28T19:20:40.281Z,4.60
2022-07-28T19:23:07.943Z,3.78
2022-07-28T19:25:37.629Z,3.22
2022-07-28T19:28:05.850Z,3.00
2022-07-28T19:30:33.359Z,3.47
2022-07-28T19:33:02.639Z,3.13
2022-07-28T19:35:30.242Z,2.67
2022-07-28T19:37:59.865Z,2.63
2022-07-28T19:40:29.613Z,3.10
2022-07-28T19:42:57.459Z,2.58
2022-07-28T19:45:25.331Z,2.85
2022-07-28T19:47:54.487Z,2.50
2022-07-28T19:50:23.306Z,2.40
2022-07-28T19:52:50.969Z,2.70
2022-07-28T19:55:18.840Z,2.53
2022-07-28T19:57:47.072Z,2.53
2022-07-28T20:00:17.324Z,2.08
2022-07-28T20:02:45.815Z,2.20
2022-07-28T20:05:13.529Z,2.45
2022-07-28T20:07:42.298Z,2.10
2022-07-28T20:10:10.126Z,2.15
2022-07-28T20:12:37.737Z,2.30
2022-07-28T20:15:05.459Z,2.60
2022-07-28T20:17:38.467Z,2.10
2022-07-28T20:22:34.728Z,1.85
2022-07-28T20:25:03.580Z,2.20
2022-07-28T20:27:31.196Z,2.08
2022-07-28T20:30:09.627Z,2.10
2022-07-28T20:32:37.787Z,1.88
2022-07-28T20:35:06.087Z,1.83
2022-07-28T20:37:37.261Z,1.88
2022-07-28T20:40:07.826Z,2.30
2022-07-28T20:42:35.330Z,2.72
2022-07-28T20:45:02.842Z,2.10
2022-07-28T20:47:32.571Z,2.33
2022-07-28T20:50:00.224Z,1.90
2022-07-28T20:52:27.722Z,2.25
2022-07-28T20:54:55.215Z,1.60
2022-07-28T20:57:24.183Z,2.08
2022-07-28T20:59:52.125Z,2.15
2022-07-28T21:02:19.957Z,2.00
2022-07-28T21:04:50.220Z,2.00
2022-07-28T21:08:00.355Z,1.88
2022-07-28T21:10:06.657Z,2.05
2022-07-28T21:12:36.973Z,2.30
2022-07-28T21:15:04.717Z,2.20
2022-07-28T21:17:32.182Z,2.42
2022-07-28T21:19:59.635Z,2.28
2022-07-28T21:22:27.097Z,2.00
2022-07-28T21:24:55.649Z,2.17
2022-07-28T21:27:23.727Z,2.17
2022-07-28T21:32:18.121Z,1.90
2022-07-28T21:34:45.679Z,1.75
2022-07-28T21:37:14.042Z,2.20
2022-07-28T21:39:41.548Z,2.03
2022-07-28T21:42:09.568Z,1.92
2022-07-28T21:44:37.314Z,2.00
2022-07-28T21:47:06.432Z,2.10
2022-07-28T21:49:33.885Z,1.92
2022-07-28T21:52:01.307Z,2.15
2022-07-28T21:54:28.796Z,2.08
2022-07-28T21:56:56.217Z,1.90
2022-07-28T21:59:23.662Z,2.20
2022-07-28T22:01:51.122Z,2.40
2022-07-28T22:04:20.485Z,2.15
2022-07-28T22:06:48.273Z,1.83
2022-07-28T22:09:15.733Z,2.08
2022-07-28T22:11:43.333Z,2.15
2022-07-28T22:14:10.868Z,2.08
2022-07-28T22:16:38.386Z,2.10
2022-07-28T22:19:06.053Z,1.92
2022-07-28T22:21:34.805Z,1.92
2022-07-28T22:24:02.237Z,2.60
2022-07-28T22:26:29.676Z,2.35
2022-07-28T22:28:57.111Z,2.65
2022-07-28T22:31:24.653Z,2.25
2022-07-28T22:33:52.160Z,2.30
2022-07-28T22:36:19.621Z,2.40
2022-07-28T22:38:48.418Z,2.17
2022-07-28T22:41:15.873Z,2.30
2022-07-28T22:43:43.303Z,2.53
2022-07-28T22:46:10.940Z,2.35
2022-07-28T22:48:38.552Z,2.47
2022-07-28T22:51:10.716Z,2.20
2022-07-28T22:53:38.188Z,2.22
2022-07-28T22:56:07.994Z,2.22
2022-07-28T22:58:35.458Z,2.38
2022-07-28T23:01:03.565Z,2.30
2022-07-28T23:03:33.374Z,2.10
2022-07-28T23:06:01.654Z,2.20
2022-07-28T23:08:29.232Z,2.60
2022-07-28T23:10:56.680Z,2.67
2022-07-28T23:13:25.442Z,2.40
2022-07-28T23:15:52.857Z,2.90
2022-07-28T23:18:20.292Z,2.22
2022-07-28T23:20:48.686Z,2.35
2022-07-28T23:23:18.398Z,2.45
2022-07-28T23:25:46.662Z,2.60
2022-07-28T23:28:14.106Z,2.58
2022-07-28T23:30:42.870Z,2.50
2022-07-28T23:33:54.198Z,2.80
2022-07-28T23:35:57.729Z,2.80
2022-07-28T23:38:25.241Z,2.47
2022-07-28T23:40:52.684Z,2.60
2022-07-28T23:43:20.113Z,2.78
2022-07-28T23:45:48.913Z,2.72
2022-07-28T23:48:16.369Z,3.20
2022-07-28T23:50:43.803Z,3.60
2022-07-28T23:53:11.229Z,3.22
2022-07-28T23:55:38.785Z,3.40
2022-07-28T23:58:06.215Z,3.60
